Time;durP1;ratioP1;P1;durP2;ratioP2;P2;SDS_P1;SDS_P2;PMS_P1;PMS_P2;Temp;Humidity;BMP_temperature;BMP_pressure;BME280_temperature;BME280_humidity;BME280_pressure;Samples;Min_cycle;Max_cycle;Signal;HPM_P1;HPM_P2
2023/07/20 00:03:54;;;;;;;13.00;2.83;;;;;;;;;;10285691;28;20054;-79
2023/07/20 00:08:55;;;;;;;10.05;3.10;;;;;;;;;;10263823;28;20030;-78
2023/07/20 00:14:02;;;;;;;7.13;2.72;;;;;;;;;;10289956;28;20553;-85
2023/07/20 00:19:03;;;;;;;7.43;2.72;;;;;;;;;;10250013;28;20027;-80
2023/07/20 00:24:05;;;;;;;10.57;2.47;;;;;;;;;;10275819;28;20027;-82
2023/07/20 00:29:05;;;;;;;8.68;2.70;;;;;;;;;;10281270;28;20487;-84
2023/07/20 00:34:06;;;;;;;9.82;2.92;;;;;;;;;;10282361;28;20027;-84
2023/07/20 00:39:06;;;;;;;18.52;4.57;;;;;;;;;;10281378;28;20055;-83
2023/07/20 00:44:09;;;;;;;9.70;2.60;;;;;;;;;;10264986;28;20029;-84
2023/07/20 00:49:09;;;;;;;11.90;2.65;;;;;;;;;;10263034;28;20510;-78
2023/07/20 00:54:10;;;;;;;13.13;2.60;;;;;;;;;;10269554;28;20104;-81
2023/07/20 00:59:10;;;;;;;7.63;2.80;;;;;;;;;;10290392;28;20030;-78
2023/07/20 01:04:10;;;;;;;10.02;2.40;;;;;;;;;;10288819;28;20380;-81
2023/07/20 01:09:17;;;;;;;11.43;2.60;;;;;;;;;;10271520;28;20018;-80
2023/07/20 01:14:18;;;;;;;6.40;3.03;;;;;;;;;;10260589;28;20278;-82
2023/07/20 01:19:18;;;;;;;6.00;2.47;;;;;;;;;;10257697;28;20038;-77
2023/07/20 01:24:28;;;;;;;10.97;2.00;;;;;;;;;;10270489;28;20029;-77
2023/07/20 01:29:50;;;;;;;8.48;2.60;;;;;;;;;;10249155;28;20027;-76
2023/07/20 01:34:52;;;;;;;15.82;2.65;;;;;;;;;;10247328;28;20122;-79
2023/07/20 01:39:55;;;;;;;6.55;2.03;;;;;;;;;;10243139;28;20059;-82
2023/07/20 01:44:56;;;;;;;7.15;2.65;;;;;;;;;;10250080;28;20551;-86
2023/07/20 01:49:57;;;;;;;8.75;2.42;;;;;;;;;;10228170;28;20038;-85
2023/07/20 01:55:01;;;;;;;4.47;2.45;;;;;;;;;;10248888;28;20561;-81
2023/07/20 02:00:02;;;;;;;9.23;2.30;;;;;;;;;;10232044;29;20042;-83
2023/07/20 02:05:03;;;;;;;9.23;3.33;;;;;;;;;;10246682;29;20031;-85
2023/07/20 02:10:03;;;;;;;9.05;2.80;;;;;;;;;;10245078;29;20027;-79
2023/07/20 02:15:04;;;;;;;6.03;2.20;;;;;;;;;;10241263;28;20043;-81
2023/07/20 02:20:04;;;;;;;6.78;2.58;;;;;;;;;;10245813;28;20691;-84
2023/07/20 02:25:05;;;;;;;13.30;2.53;;;;;;;;;;10226127;28;20139;-79
2023/07/20 02:30:06;;;;;;;7.80;2.40;;;;;;;;;;10240164;29;20024;-77
2023/07/20 02:35:06;;;;;;;10.55;2.70;;;;;;;;;;10247085;29;20400;-81
2023/07/20 02:40:10;;;;;;;14.48;3.38;;;;;;;;;;10243459;29;20532;-85
2023/07/20 02:45:10;;;;;;;9.35;3.28;;;;;;;;;;10244431;29;20728;-77
2023/07/20 02:50:13;;;;;;;9.90;2.78;;;;;;;;;;10238639;29;20027;-79
2023/07/20 02:55:13;;;;;;;9.63;3.97;;;;;;;;;;10252391;29;20110;-79
2023/07/20 03:00:15;;;;;;;6.88;2.85;;;;;;;;;;10249955;28;20114;-83
2023/07/20 03:05:16;;;;;;;11.98;3.10;;;;;;;;;;10270813;28;20034;-86
2023/07/20 03:10:17;;;;;;;16.50;3.22;;;;;;;;;;10272693;28;20043;-83
2023/07/20 03:15:18;;;;;;;20.77;5.60;;;;;;;;;;10231371;28;20582;-78
2023/07/20 03:20:19;;;;;;;11.30;3.55;;;;;;;;;;10240706;28;20583;-78
2023/07/20 03:25:21;;;;;;;9.13;3.20;;;;;;;;;;10272272;28;20122;-77
2023/07/20 03:30:21;;;;;;;10.30;3.75;;;;;;;;;;10278969;28;20142;-81
2023/07/20 03:35:22;;;;;;;11.20;3.03;;;;;;;;;;10260002;28;20099;-81
2023/07/20 03:40:22;;;;;;;9.02;2.95;;;;;;;;;;10262322;28;20047;-77
2023/07/20 03:45:23;;;;;;;6.80;3.13;;;;;;;;;;10276568;28;20030;-75
2023/07/20 03:50:24;;;;;;;17.48;3.70;;;;;;;;;;10276256;28;20027;-78
2023/07/20 03:55:24;;;;;;;24.20;5.63;;;;;;;;;;10277993;28;20061;-76
2023/07/20 04:00:26;;;;;;;8.63;3.33;;;;;;;;;;10277241;28;20051;-78
2023/07/20 04:05:26;;;;;;;9.38;4.32;;;;;;;;;;10264935;28;20023;-79
2023/07/20 04:10:26;;;;;;;12.93;3.97;;;;;;;;;;10268995;28;20035;-84
2023/07/20 04:15:27;;;;;;;11.73;4.05;;;;;;;;;;10246186;28;20506;-77
2023/07/20 04:20:27;;;;;;;10.40;4.13;;;;;;;;;;10276058;28;20122;-81
2023/07/20 04:25:27;;;;;;;16.50;4.60;;;;;;;;;;10277712;28;20487;-80
2023/07/20 04:30:27;;;;;;;11.00;3.95;;;;;;;;;;10266628;28;20474;-79
2023/07/20 04:35:47;;;;;;;16.63;4.60;;;;;;;;;;10276961;28;20089;-84
2023/07/20 04:40:49;;;;;;;11.65;4.13;;;;;;;;;;10275671;28;20474;-83
2023/07/20 04:45:50;;;;;;;14.63;4.32;;;;;;;;;;10263897;28;20112;-79
2023/07/20 04:50:55;;;;;;;10.70;4.82;;;;;;;;;;10258060;28;20097;-79
2023/07/20 04:55:55;;;;;;;13.23;4.20;;;;;;;;;;10280918;28;20116;-81
2023/07/20 05:00:59;;;;;;;7.13;3.75;;;;;;;;;;10272890;28;20089;-79
2023/07/20 05:05:59;;;;;;;16.05;3.53;;;;;;;;;;10280345;28;20422;-86
2023/07/20 05:11:22;;;;;;;10.17;3.87;;;;;;;;;;10268707;28;20019;-85
2023/07/20 05:16:23;;;;;;;7.68;3.42;;;;;;;;;;10275104;28;20066;-81
2023/07/20 05:21:36;;;;;;;16.33;3.97;;;;;;;;;;10268333;28;20472;-79
2023/07/20 05:26:37;;;;;;;8.90;3.60;;;;;;;;;;10286356;28;20031;-72
2023/07/20 05:31:41;;;;;;;11.68;4.88;;;;;;;;;;10290002;28;20027;-78
2023/07/20 05:36:41;;;;;;;11.48;3.42;;;;;;;;;;10257478;28;20023;-78
2023/07/20 05:41:42;;;;;;;9.10;3.70;;;;;;;;;;10292005;28;20039;-75
2023/07/20 05:46:42;;;;;;;14.37;3.90;;;;;;;;;;10295816;28;20058;-75
2023/07/20 05:51:42;;;;;;;14.52;3.80;;;;;;;;;;10245112;28;20031;-77
2023/07/20 05:56:42;;;;;;;7.68;3.25;;;;;;;;;;10270963;28;20043;-83
2023/07/20 06:01:43;;;;;;;11.35;2.63;;;;;;;;;;10251481;28;20109;-78
2023/07/20 06:06:43;;;;;;;12.00;2.67;;;;;;;;;;10259430;28;20034;-79
2023/07/20 06:11:44;;;;;;;11.07;4.22;;;;;;;;;;10260798;28;20035;-76
2023/07/20 06:16:44;;;;;;;16.13;3.20;;;;;;;;;;10263273;28;20388;-77
2023/07/20 06:21:44;;;;;;;19.13;4.28;;;;;;;;;;10273138;28;20185;-80
2023/07/20 06:26:45;;;;;;;15.40;3.42;;;;;;;;;;10270899;28;20059;-78
2023/07/20 06:31:45;;;;;;;13.07;3.50;;;;;;;;;;10247768;28;20532;-81
2023/07/20 06:36:45;;;;;;;6.57;3.60;;;;;;;;;;10266561;28;20030;-79
2023/07/20 06:41:46;;;;;;;11.95;3.30;;;;;;;;;;10265625;28;20043;-79
2023/07/20 06:46:46;;;;;;;12.13;2.90;;;;;;;;;;10247201;28;20034;-78
2023/07/20 06:51:46;;;;;;;7.78;2.55;;;;;;;;;;10255923;28;20025;-79
2023/07/20 06:56:46;;;;;;;13.43;3.58;;;;;;;;;;10245049;28;20039;-81
2023/07/20 07:01:47;;;;;;;14.07;3.38;;;;;;;;;;10245631;28;20413;-79
2023/07/20 07:06:48;;;;;;;11.52;3.70;;;;;;;;;;10243110;28;20023;-78
2023/07/20 07:11:48;;;;;;;15.75;3.35;;;;;;;;;;10254555;28;20569;-77
2023/07/20 07:16:49;;;;;;;13.87;3.37;;;;;;;;;;10261100;28;20028;-82
2023/07/20 07:21:49;;;;;;;11.18;2.90;;;;;;;;;;10249416;28;20038;-81
2023/07/20 07:27:01;;;;;;;14.90;4.15;;;;;;;;;;10252497;28;20023;-76
2023/07/20 07:32:05;;;;;;;7.40;3.40;;;;;;;;;;10265106;28;20031;-80
2023/07/20 07:37:06;;;;;;;12.55;3.60;;;;;;;;;;10281066;28;20495;-76
2023/07/20 07:42:06;;;;;;;12.70;3.65;;;;;;;;;;10252221;28;20431;-77
2023/07/20 07:47:07;;;;;;;18.08;3.55;;;;;;;;;;10249425;28;20027;-78
2023/07/20 07:52:07;;;;;;;17.63;3.27;;;;;;;;;;10246160;28;20464;-80
2023/07/20 07:57:07;;;;;;;10.60;2.73;;;;;;;;;;10251570;28;20035;-80
2023/07/20 08:02:08;;;;;;;11.02;2.90;;;;;;;;;;10257300;28;20465;-80
2023/07/20 08:07:08;;;;;;;15.50;3.28;;;;;;;;;;10257186;28;20509;-80
2023/07/20 08:12:09;;;;;;;13.98;3.22;;;;;;;;;;10247722;28;20029;-79
2023/07/20 08:17:10;;;;;;;12.50;3.53;;;;;;;;;;10244319;28;20486;-80
2023/07/20 08:22:12;;;;;;;6.68;2.90;;;;;;;;;;10260010;28;20569;-80
2023/07/20 08:27:18;;;;;;;13.07;3.00;;;;;;;;;;10259408;28;20085;-85
2023/07/20 08:32:18;;;;;;;19.83;2.70;;;;;;;;;;10250762;28;20043;-81
2023/07/20 08:37:18;;;;;;;7.95;2.17;;;;;;;;;;10256822;28;20110;-80
2023/07/20 08:42:20;;;;;;;19.60;2.58;;;;;;;;;;10249615;28;20043;-81
2023/07/20 08:47:20;;;;;;;9.43;2.63;;;;;;;;;;10248345;28;20118;-80
2023/07/20 08:52:21;;;;;;;6.77;1.90;;;;;;;;;;10231184;28;20039;-79
2023/07/20 08:57:22;;;;;;;9.63;2.30;;;;;;;;;;10257410;28;20517;-86
2023/07/20 09:02:24;;;;;;;7.72;2.00;;;;;;;;;;10243501;28;20034;-76
2023/07/20 09:07:25;;;;;;;10.35;1.95;;;;;;;;;;10260022;28;20464;-78
2023/07/20 09:12:26;;;;;;;9.65;1.85;;;;;;;;;;10255179;28;20065;-82
2023/07/20 09:17:27;;;;;;;10.85;2.22;;;;;;;;;;10263517;28;20042;-80
2023/07/20 09:22:31;;;;;;;8.38;1.70;;;;;;;;;;10261707;28;20499;-77
2023/07/20 09:27:44;;;;;;;8.65;2.65;;;;;;;;;;10254167;28;20030;-80
2023/07/20 09:32:48;;;;;;;12.13;1.80;;;;;;;;;;10255884;28;20118;-81
2023/07/20 09:37:51;;;;;;;6.13;1.67;;;;;;;;;;10264734;28;20388;-82
2023/07/20 09:42:53;;;;;;;4.72;1.73;;;;;;;;;;10259340;28;20047;-80
2023/07/20 09:48:02;;;;;;;7.20;1.48;;;;;;;;;;10253907;28;20047;-79
2023/07/20 09:53:03;;;;;;;10.30;1.67;;;;;;;;;;10255139;28;20018;-80
2023/07/20 09:58:06;;;;;;;6.70;2.10;;;;;;;;;;10254295;28;20031;-82
2023/07/20 10:03:07;;;;;;;9.00;1.80;;;;;;;;;;10249336;28;20054;-79
2023/07/20 10:08:10;;;;;;;11.97;1.77;;;;;;;;;;10249342;28;20125;-79
2023/07/20 10:13:15;;;;;;;9.73;3.17;;;;;;;;;;10257558;28;20027;-79
2023/07/20 10:18:23;;;;;;;12.48;2.30;;;;;;;;;;10256829;28;20499;-70
2023/07/20 10:23:23;;;;;;;9.63;2.38;;;;;;;;;;10266582;28;20031;-76
2023/07/20 10:28:24;;;;;;;9.60;2.47;;;;;;;;;;10254285;28;20035;-75
2023/07/20 10:33:24;;;;;;;9.90;2.80;;;;;;;;;;10256267;28;20058;-82
2023/07/20 10:38:44;;;;;;;8.20;1.67;;;;;;;;;;10261300;28;20510;-79
2023/07/20 10:43:46;;;;;;;8.02;1.98;;;;;;;;;;10260854;28;20065;-81
2023/07/20 10:49:05;;;;;;;5.68;1.30;;;;;;;;;;10255388;28;20108;-78
2023/07/20 10:54:07;;;;;;;7.43;1.95;;;;;;;;;;10258093;28;20031;-82
2023/07/20 10:59:36;;;;;;;8.23;1.73;;;;;;;;;;10272686;28;20031;-76
2023/07/20 11:04:45;;;;;;;;;;;;;;;;;;10267724;28;20174;-80
2023/07/20 11:09:46;;;;;;;8.30;2.13;;;;;;;;;;10251418;28;19988;-78
2023/07/20 11:14:54;;;;;;;4.25;1.58;;;;;;;;;;10239738;28;20038;-79
2023/07/20 11:19:55;;;;;;;5.10;1.98;;;;;;;;;;10254218;28;20086;-81
2023/07/20 11:24:58;;;;;;;8.65;2.88;;;;;;;;;;10267419;28;20503;-72
2023/07/20 11:29:58;;;;;;;6.80;1.90;;;;;;;;;;10266699;28;20035;-78
2023/07/20 11:34:58;;;;;;;4.95;2.25;;;;;;;;;;10249236;28;20035;-75
2023/07/20 11:39:59;;;;;;;10.25;2.58;;;;;;;;;;10260989;28;20054;-78
2023/07/20 11:45:01;;;;;;;9.23;3.05;;;;;;;;;;10256204;28;20089;-78
2023/07/20 11:50:05;;;;;;;10.88;3.15;;;;;;;;;;10260382;28;20335;-78
2023/07/20 11:55:07;;;;;;;8.48;3.88;;;;;;;;;;10256715;28;20404;-80
2023/07/20 12:00:11;;;;;;;7.50;2.80;;;;;;;;;;10263397;28;20054;-83
2023/07/20 12:05:13;;;;;;;7.90;3.35;;;;;;;;;;10260387;28;20142;-77
2023/07/20 12:10:14;;;;;;;17.98;3.25;;;;;;;;;;10234140;28;20411;-79
2023/07/20 12:15:26;;;;;;;5.60;2.97;;;;;;;;;;10244697;28;20026;-79
2023/07/20 12:20:28;;;;;;;14.98;4.22;;;;;;;;;;10246666;28;20573;-79
2023/07/20 12:25:42;;;;;;;10.80;3.15;;;;;;;;;;10245121;28;20061;-78
2023/07/20 12:30:44;;;;;;;7.63;3.03;;;;;;;;;;10248708;28;20348;-79
2023/07/20 12:35:44;;;;;;;6.70;2.38;;;;;;;;;;10255458;28;20043;-75
2023/07/20 12:40:45;;;;;;;8.68;2.33;;;;;;;;;;10256000;28;20035;-77
2023/07/20 12:45:46;;;;;;;12.20;2.63;;;;;;;;;;10278322;28;20023;-78
2023/07/20 12:50:46;;;;;;;4.50;1.83;;;;;;;;;;10267035;28;20077;-80
2023/07/20 12:55:47;;;;;;;13.73;3.63;;;;;;;;;;10265133;28;20027;-78
2023/07/20 13:00:47;;;;;;;8.13;2.53;;;;;;;;;;10270350;28;20035;-79
2023/07/20 13:05:50;;;;;;;5.17;2.30;;;;;;;;;;10246138;28;20285;-77
2023/07/20 13:10:51;;;;;;;9.25;2.47;;;;;;;;;;10268824;28;20818;-82
2023/07/20 13:15:51;;;;;;;10.13;2.33;;;;;;;;;;10261219;28;20146;-80
2023/07/20 13:20:53;;;;;;;12.50;2.50;;;;;;;;;;10266691;28;20073;-85
2023/07/20 13:25:53;;;;;;;9.02;2.78;;;;;;;;;;10262696;28;20047;-78
2023/07/20 13:30:53;;;;;;;12.60;2.13;;;;;;;;;;10268440;28;20110;-78
2023/07/20 13:35:53;;;;;;;8.20;2.47;;;;;;;;;;10265042;28;20019;-81
2023/07/20 13:40:57;;;;;;;11.20;2.72;;;;;;;;;;10256011;28;20126;-79
2023/07/20 13:45:59;;;;;;;12.57;2.30;;;;;;;;;;10257183;28;20027;-79
2023/07/20 13:50:59;;;;;;;8.75;2.40;;;;;;;;;;10255931;28;20046;-75
2023/07/20 13:56:00;;;;;;;12.77;2.72;;;;;;;;;;10268381;28;20068;-81
2023/07/20 14:01:00;;;;;;;6.23;1.77;;;;;;;;;;10263760;28;20031;-80
2023/07/20 14:06:05;;;;;;;10.20;2.67;;;;;;;;;;10251289;28;20059;-83
2023/07/20 14:11:06;;;;;;;15.00;3.53;;;;;;;;;;10271549;28;20015;-81
2023/07/20 14:16:08;;;;;;;10.52;2.15;;;;;;;;;;10258532;28;20034;-82
2023/07/20 14:21:08;;;;;;;7.82;2.38;;;;;;;;;;10261747;28;20019;-81
2023/07/20 14:26:08;;;;;;;10.85;2.13;;;;;;;;;;10255887;28;20030;-75
2023/07/20 14:31:09;;;;;;;6.37;2.33;;;;;;;;;;10268744;28;20039;-77
2023/07/20 14:36:09;;;;;;;9.63;1.77;;;;;;;;;;10261192;28;20022;-80
2023/07/20 14:41:09;;;;;;;12.40;2.08;;;;;;;;;;10245394;28;20031;-75
2023/07/20 14:46:11;;;;;;;8.27;2.00;;;;;;;;;;10248953;28;20495;-76
2023/07/20 14:51:11;;;;;;;12.68;2.97;;;;;;;;;;10257116;28;20030;-77
2023/07/20 14:56:12;;;;;;;6.65;1.60;;;;;;;;;;10254830;28;20034;-76
2023/07/20 15:01:12;;;;;;;8.63;2.23;;;;;;;;;;10272427;28;20086;-72
2023/07/20 15:06:12;;;;;;;5.80;1.98;;;;;;;;;;10256515;28;20302;-78
2023/07/20 15:11:13;;;;;;;8.67;2.00;;;;;;;;;;10252365;28;20535;-76
2023/07/20 15:16:13;;;;;;;9.43;2.53;;;;;;;;;;10261622;28;20880;-72
2023/07/20 15:21:13;;;;;;;16.80;2.28;;;;;;;;;;10252687;28;20063;-72
2023/07/20 15:26:14;;;;;;;10.77;2.03;;;;;;;;;;10250038;28;20014;-77
2023/07/20 15:31:15;;;;;;;11.15;3.05;;;;;;;;;;10265499;28;20498;-72
2023/07/20 15:36:15;;;;;;;10.98;2.63;;;;;;;;;;10250312;28;20038;-73
2023/07/20 15:41:15;;;;;;;8.13;2.47;;;;;;;;;;10258183;28;20038;-77
2023/07/20 15:46:18;;;;;;;14.35;3.42;;;;;;;;;;10249513;28;20098;-72
2023/07/20 15:51:20;;;;;;;9.23;2.20;;;;;;;;;;10245479;28;20030;-72
2023/07/20 15:56:20;;;;;;;6.85;2.60;;;;;;;;;;10248053;28;20029;-73
2023/07/20 16:01:23;;;;;;;8.70;2.00;;;;;;;;;;10245634;28;20482;-76
2023/07/20 16:06:24;;;;;;;10.30;2.70;;;;;;;;;;10253607;28;20419;-81
2023/07/20 16:11:24;;;;;;;8.63;2.13;;;;;;;;;;10255933;28;20033;-77
2023/07/20 16:16:24;;;;;;;6.13;2.10;;;;;;;;;;10254420;28;20510;-81
2023/07/20 16:21:25;;;;;;;8.13;2.30;;;;;;;;;;10253832;28;20035;-75
2023/07/20 16:26:26;;;;;;;6.33;2.00;;;;;;;;;;10252355;28;20476;-81
2023/07/20 16:31:27;;;;;;;7.07;2.88;;;;;;;;;;10274863;28;20041;-78
2023/07/20 16:36:31;;;;;;;11.18;2.40;;;;;;;;;;10256622;28;20031;-77
2023/07/20 16:41:31;;;;;;;6.35;1.77;;;;;;;;;;10258250;28;20047;-76
2023/07/20 16:46:35;;;;;;;7.00;2.10;;;;;;;;;;10250318;28;20034;-79
2023/07/20 16:51:38;;;;;;;4.50;1.63;;;;;;;;;;10249555;28;20690;-77
2023/07/20 16:56:41;;;;;;;6.70;2.35;;;;;;;;;;10256265;28;20110;-81
2023/07/20 17:01:44;;;;;;;7.97;2.05;;;;;;;;;;10254149;28;20116;-77
2023/07/20 17:06:48;;;;;;;7.60;2.53;;;;;;;;;;10251024;28;20027;-85
2023/07/20 17:11:48;;;;;;;7.28;2.33;;;;;;;;;;10253926;28;20027;-75
2023/07/20 17:16:49;;;;;;;6.67;3.03;;;;;;;;;;10249753;28;20035;-78
2023/07/20 17:21:50;;;;;;;5.10;2.30;;;;;;;;;;10252666;28;20038;-80
2023/07/20 17:26:51;;;;;;;8.48;1.73;;;;;;;;;;10254094;28;20027;-75
2023/07/20 17:31:52;;;;;;;8.35;2.20;;;;;;;;;;10271121;28;20022;-86
2023/07/20 17:36:52;;;;;;;8.02;2.20;;;;;;;;;;10250697;28;20019;-76
2023/07/20 17:41:52;;;;;;;6.33;2.20;;;;;;;;;;10255405;28;20039;-77
2023/07/20 17:46:53;;;;;;;11.10;2.10;;;;;;;;;;10253179;28;20019;-82
2023/07/20 17:51:55;;;;;;;7.47;1.83;;;;;;;;;;10241764;28;20030;-77
2023/07/20 17:56:56;;;;;;;4.18;2.08;;;;;;;;;;10247848;28;20027;-76
2023/07/20 18:01:56;;;;;;;8.33;2.37;;;;;;;;;;10253236;28;20423;-76
2023/07/20 18:06:56;;;;;;;13.98;2.33;;;;;;;;;;10269597;28;20391;-74
2023/07/20 18:11:56;;;;;;;7.75;2.13;;;;;;;;;;10249838;28;20533;-75
2023/07/20 18:17:03;;;;;;;7.55;1.92;;;;;;;;;;10259487;28;20635;-74
2023/07/20 18:22:04;;;;;;;7.32;1.90;;;;;;;;;;10256655;28;20019;-77
2023/07/20 18:27:05;;;;;;;4.90;2.00;;;;;;;;;;10255366;28;20412;-72
2023/07/20 18:32:05;;;;;;;7.20;1.92;;;;;;;;;;10251080;28;20037;-78
2023/07/20 18:37:05;;;;;;;6.15;2.08;;;;;;;;;;10258275;28;20031;-74
2023/07/20 18:42:06;;;;;;;6.10;1.80;;;;;;;;;;10254626;28;20039;-74
2023/07/20 18:47:08;;;;;;;9.27;2.20;;;;;;;;;;10253690;28;20463;-75
2023/07/20 18:52:08;;;;;;;7.35;1.90;;;;;;;;;;10252536;28;20418;-74
2023/07/20 18:57:08;;;;;;;7.43;2.17;;;;;;;;;;10251753;28;20027;-75
2023/07/20 19:02:08;;;;;;;6.47;2.25;;;;;;;;;;10256152;28;20501;-74
2023/07/20 19:07:09;;;;;;;7.78;2.15;;;;;;;;;;10260455;28;20582;-74
2023/07/20 19:12:09;;;;;;;5.45;2.50;;;;;;;;;;10251995;28;20027;-75
2023/07/20 19:17:10;;;;;;;6.68;2.30;;;;;;;;;;10247264;28;20026;-75
2023/07/20 19:22:10;;;;;;;7.88;2.10;;;;;;;;;;10274371;28;20077;-78
2023/07/20 19:27:10;;;;;;;7.17;1.77;;;;;;;;;;10260906;28;20019;-74
2023/07/20 19:32:12;;;;;;;5.60;2.22;;;;;;;;;;10257192;28;20058;-77
2023/07/20 19:37:15;;;;;;;8.95;2.70;;;;;;;;;;10263190;28;20136;-77
2023/07/20 19:42:16;;;;;;;8.30;3.50;;;;;;;;;;10273441;28;20051;-78
2023/07/20 19:47:16;;;;;;;5.00;2.33;;;;;;;;;;10259116;28;20030;-77
2023/07/20 19:52:17;;;;;;;6.78;2.00;;;;;;;;;;10253220;28;20023;-79
2023/07/20 19:57:18;;;;;;;12.45;2.55;;;;;;;;;;10271075;28;20035;-79
2023/07/20 20:02:18;;;;;;;7.85;2.78;;;;;;;;;;10252925;28;20023;-82
2023/07/20 20:07:18;;;;;;;6.50;2.70;;;;;;;;;;10277700;28;20076;-82
2023/07/20 20:12:19;;;;;;;6.83;2.43;;;;;;;;;;10291452;28;20053;-84
2023/07/20 20:17:22;;;;;;;5.03;3.07;;;;;;;;;;10286705;28;20041;-78
2023/07/20 20:22:23;;;;;;;5.47;2.60;;;;;;;;;;10281254;28;20271;-78
2023/07/20 20:27:23;;;;;;;7.65;3.10;;;;;;;;;;10281849;28;20022;-82
2023/07/20 20:32:23;;;;;;;8.20;3.05;;;;;;;;;;10284413;28;20022;-77
2023/07/20 20:37:25;;;;;;;14.47;3.37;;;;;;;;;;10282128;28;20042;-81
2023/07/20 20:42:26;;;;;;;8.77;2.90;;;;;;;;;;10286298;28;20053;-81
2023/07/20 20:47:29;;;;;;;7.40;2.65;;;;;;;;;;10274460;28;20394;-84
2023/07/20 20:52:29;;;;;;;6.32;2.85;;;;;;;;;;10247479;28;20037;-79
2023/07/20 20:57:30;;;;;;;6.60;2.85;;;;;;;;;;10286033;28;20501;-79
2023/07/20 21:02:30;;;;;;;5.20;3.22;;;;;;;;;;10288610;28;20056;-77
2023/07/20 21:07:30;;;;;;;11.32;3.28;;;;;;;;;;10288562;28;20110;-78
2023/07/20 21:12:34;;;;;;;6.10;3.42;;;;;;;;;;10287890;28;20027;-76
2023/07/20 21:17:34;;;;;;;11.10;3.78;;;;;;;;;;10288782;28;20018;-84
2023/07/20 21:22:37;;;;;;;8.02;3.30;;;;;;;;;;10287294;28;20404;-85
2023/07/20 21:27:38;;;;;;;15.48;3.65;;;;;;;;;;10287614;28;20093;-78
2023/07/20 21:32:40;;;;;;;11.10;3.60;;;;;;;;;;10286599;28;20031;-84
2023/07/20 21:37:42;;;;;;;4.03;2.80;;;;;;;;;;10288977;28;20031;-83
2023/07/20 21:42:42;;;;;;;7.70;3.42;;;;;;;;;;10306105;28;20538;-84
2023/07/20 21:47:43;;;;;;;9.07;3.47;;;;;;;;;;10302321;28;20023;-78
2023/07/20 21:52:44;;;;;;;7.63;3.67;;;;;;;;;;10285980;28;20026;-76
2023/07/20 21:57:45;;;;;;;9.05;3.70;;;;;;;;;;10289396;28;20581;-83
2023/07/20 22:02:46;;;;;;;9.48;3.05;;;;;;;;;;10297656;28;20031;-78
2023/07/20 22:07:47;;;;;;;7.22;3.05;;;;;;;;;;10284688;28;20030;-75
2023/07/20 22:12:47;;;;;;;7.72;3.15;;;;;;;;;;10289354;28;20073;-78
2023/07/20 22:17:48;;;;;;;5.05;2.85;;;;;;;;;;10288260;28;20114;-79
2023/07/20 22:22:48;;;;;;;7.43;4.10;;;;;;;;;;10293589;28;20027;-80
2023/07/20 22:27:48;;;;;;;5.43;2.95;;;;;;;;;;10287234;28;20414;-77
2023/07/20 22:32:48;;;;;;;5.30;3.42;;;;;;;;;;10286183;28;20407;-80
2023/07/20 22:37:50;;;;;;;8.43;4.13;;;;;;;;;;10290339;28;20029;-71
2023/07/20 22:42:51;;;;;;;6.57;3.38;;;;;;;;;;10309168;28;20041;-77
2023/07/20 22:47:51;;;;;;;6.43;3.40;;;;;;;;;;10300730;28;20047;-78
2023/07/20 22:52:52;;;;;;;12.60;3.60;;;;;;;;;;10286422;28;20455;-81
2023/07/20 22:57:57;;;;;;;5.63;3.10;;;;;;;;;;10270125;28;20027;-81
2023/07/20 23:02:58;;;;;;;4.82;3.28;;;;;;;;;;10290888;28;20034;-86
2023/07/20 23:08:01;;;;;;;5.43;2.38;;;;;;;;;;10286279;28;20091;-79
2023/07/20 23:13:03;;;;;;;10.63;3.00;;;;;;;;;;10283950;28;20022;-79
2023/07/20 23:18:04;;;;;;;7.32;3.17;;;;;;;;;;10285041;28;20027;-77
2023/07/20 23:23:04;;;;;;;8.68;3.75;;;;;;;;;;10283905;28;20026;-79
2023/07/20 23:28:04;;;;;;;9.38;4.28;;;;;;;;;;10284660;28;20109;-77
2023/07/20 23:33:06;;;;;;;9.32;5.20;;;;;;;;;;10282625;28;20030;-81
2023/07/20 23:38:11;;;;;;;7.93;4.57;;;;;;;;;;10284855;28;20146;-78
2023/07/20 23:43:12;;;;;;;10.82;4.60;;;;;;;;;;10284275;28;20042;-80
2023/07/20 23:48:13;;;;;;;9.00;4.22;;;;;;;;;;10268173;28;20026;-78
2023/07/20 23:53:13;;;;;;;7.25;4.55;;;;;;;;;;10283948;28;20027;-79
2023/07/20 23:58:13;;;;;;;11.20;5.30;;;;;;;;;;10283720;28;20042;-78
